sensor_id;sensor_type;location;lat;lon;timestamp;P1;durP1;ratioP1;P2;durP2;ratioP2
3141;SDS011;1581;51.568;6.998;2022-08-21T00:02:00;14.55;;;3.45;;
3141;SDS011;1581;51.568;6.998;2022-08-21T00:04:27;7.47;;;2.92;;
3141;SDS011;1581;51.568;6.998;2022-08-21T00:06:55;10.77;;;2.95;;
3141;SDS011;1581;51.568;6.998;2022-08-21T00:09:25;5.95;;;2.85;;
3141;SDS011;1581;51.568;6.998;2022-08-21T00:11:53;6.53;;;2.58;;
3141;SDS011;1581;51.568;6.998;2022-08-21T00:14:21;8.40;;;3.70;;
3141;SDS011;1581;51.568;6.998;2022-08-21T00:16:49;6.50;;;3.05;;
3141;SDS011;1581;51.568;6.998;2022-08-21T00:19:16;9.23;;;3.17;;
3141;SDS011;1581;51.568;6.998;2022-08-21T00:21:44;6.80;;;3.20;;
3141;SDS011;1581;51.568;6.998;2022-08-21T00:24:12;13.20;;;3.80;;
3141;SDS011;1581;51.568;6.998;2022-08-21T00:26:41;7.22;;;3.58;;
3141;SDS011;1581;51.568;6.998;2022-08-21T00:29:08;6.50;;;3.15;;
3141;SDS011;1581;51.568;6.998;2022-08-21T00:31:36;10.88;;;3.60;;
3141;SDS011;1581;51.568;6.998;2022-08-21T00:34:04;7.65;;;3.40;;
3141;SDS011;1581;51.568;6.998;2022-08-21T00:36:32;13.68;;;3.65;;
3141;SDS011;1581;51.568;6.998;2022-08-21T00:39:01;14.05;;;3.83;;
3141;SDS011;1581;51.568;6.998;2022-08-21T00:41:30;8.25;;;3.75;;
3141;SDS011;1581;51.568;6.998;2022-08-21T00:44:00;6.43;;;3.80;;
3141;SDS011;1581;51.568;6.998;2022-08-21T00:46:28;11.40;;;3.72;;
3141;SDS011;1581;51.568;6.998;2022-08-21T00:48:56;12.43;;;4.68;;
3141;SDS011;1581;51.568;6.998;2022-08-21T00:51:25;11.45;;;3.80;;
3141;SDS011;1581;51.568;6.998;2022-08-21T00:54:04;11.98;;;4.25;;
3141;SDS011;1581;51.568;6.998;2022-08-21T00:56:33;9.70;;;4.20;;
3141;SDS011;1581;51.568;6.998;2022-08-21T00:59:03;11.80;;;4.23;;
3141;SDS011;1581;51.568;6.998;2022-08-21T01:01:31;5.67;;;3.17;;
3141;SDS011;1581;51.568;6.998;2022-08-21T01:03:59;7.40;;;3.75;;
3141;SDS011;1581;51.568;6.998;2022-08-21T01:06:27;9.82;;;4.07;;
3141;SDS011;1581;51.568;6.998;2022-08-21T01:08:55;8.35;;;3.78;;
3141;SDS011;1581;51.568;6.998;2022-08-21T01:11:22;9.32;;;3.42;;
3141;SDS011;1581;51.568;6.998;2022-08-21T01:13:50;7.93;;;3.35;;
3141;SDS011;1581;51.568;6.998;2022-08-21T01:16:20;6.03;;;3.28;;
3141;SDS011;1581;51.568;6.998;2022-08-21T01:18:49;8.90;;;3.80;;
3141;SDS011;1581;51.568;6.998;2022-08-21T01:21:19;16.73;;;4.97;;
3141;SDS011;1581;51.568;6.998;2022-08-21T01:23:50;16.90;;;4.87;;
3141;SDS011;1581;51.568;6.998;2022-08-21T01:26:30;6.67;;;3.53;;
3141;SDS011;1581;51.568;6.998;2022-08-21T01:29:03;8.80;;;3.80;;
3141;SDS011;1581;51.568;6.998;2022-08-21T01:31:38;8.03;;;4.03;;
3141;SDS011;1581;51.568;6.998;2022-08-21T01:34:06;9.83;;;4.37;;
3141;SDS011;1581;51.568;6.998;2022-08-21T01:36:37;18.07;;;4.20;;
3141;SDS011;1581;51.568;6.998;2022-08-21T01:39:04;11.80;;;4.83;;
3141;SDS011;1581;51.568;6.998;2022-08-21T01:41:32;12.13;;;4.33;;
3141;SDS011;1581;51.568;6.998;2022-08-21T01:44:00;13.20;;;7.00;;
3141;SDS011;1581;51.568;6.998;2022-08-21T01:46:28;16.80;;;7.03;;
3141;SDS011;1581;51.568;6.998;2022-08-21T01:48:56;11.83;;;6.40;;
3141;SDS011;1581;51.568;6.998;2022-08-21T01:51:24;15.77;;;6.80;;
3141;SDS011;1581;51.568;6.998;2022-08-21T01:53:53;12.70;;;5.53;;
3141;SDS011;1581;51.568;6.998;2022-08-21T01:56:20;13.17;;;4.23;;
3141;SDS011;1581;51.568;6.998;2022-08-21T01:58:49;17.80;;;5.73;;
3141;SDS011;1581;51.568;6.998;2022-08-21T02:01:16;8.83;;;4.63;;
3141;SDS011;1581;51.568;6.998;2022-08-21T02:03:44;7.63;;;3.43;;
3141;SDS011;1581;51.568;6.998;2022-08-21T02:06:12;7.30;;;3.80;;
3141;SDS011;1581;51.568;6.998;2022-08-21T02:08:43;8.13;;;5.27;;
3141;SDS011;1581;51.568;6.998;2022-08-21T02:11:13;6.53;;;4.20;;
3141;SDS011;1581;51.568;6.998;2022-08-21T02:13:42;10.47;;;4.07;;
3141;SDS011;1581;51.568;6.998;2022-08-21T02:16:11;6.50;;;4.03;;
3141;SDS011;1581;51.568;6.998;2022-08-21T02:18:39;6.80;;;3.93;;
3141;SDS011;1581;51.568;6.998;2022-08-21T02:21:07;9.80;;;4.20;;
3141;SDS011;1581;51.568;6.998;2022-08-21T02:23:35;11.10;;;5.50;;
3141;SDS011;1581;51.568;6.998;2022-08-21T02:26:03;9.27;;;4.60;;
3141;SDS011;1581;51.568;6.998;2022-08-21T02:28:35;10.53;;;5.50;;
3141;SDS011;1581;51.568;6.998;2022-08-21T02:31:03;7.77;;;4.10;;
3141;SDS011;1581;51.568;6.998;2022-08-21T02:33:32;12.37;;;4.57;;
3141;SDS011;1581;51.568;6.998;2022-08-21T02:36:00;6.93;;;3.83;;
3141;SDS011;1581;51.568;6.998;2022-08-21T02:38:30;7.67;;;4.47;;
3141;SDS011;1581;51.568;6.998;2022-08-21T02:41:03;7.20;;;3.80;;
3141;SDS011;1581;51.568;6.998;2022-08-21T02:43:32;9.80;;;3.83;;
3141;SDS011;1581;51.568;6.998;2022-08-21T02:46:02;8.80;;;4.70;;
3141;SDS011;1581;51.568;6.998;2022-08-21T02:48:32;12.63;;;5.27;;
3141;SDS011;1581;51.568;6.998;2022-08-21T02:51:01;10.00;;;4.70;;
3141;SDS011;1581;51.568;6.998;2022-08-21T02:53:31;9.27;;;4.20;;
3141;SDS011;1581;51.568;6.998;2022-08-21T02:56:00;13.77;;;5.30;;
3141;SDS011;1581;51.568;6.998;2022-08-21T02:58:32;7.97;;;4.03;;
3141;SDS011;1581;51.568;6.998;2022-08-21T03:01:05;7.40;;;4.37;;
3141;SDS011;1581;51.568;6.998;2022-08-21T03:03:34;9.50;;;4.80;;
3141;SDS011;1581;51.568;6.998;2022-08-21T03:06:02;5.00;;;3.90;;
3141;SDS011;1581;51.568;6.998;2022-08-21T03:08:31;8.27;;;3.70;;
3141;SDS011;1581;51.568;6.998;2022-08-21T03:10:58;10.77;;;4.00;;
3141;SDS011;1581;51.568;6.998;2022-08-21T03:13:26;7.33;;;4.17;;
3141;SDS011;1581;51.568;6.998;2022-08-21T03:15:56;9.70;;;4.47;;
3141;SDS011;1581;51.568;6.998;2022-08-21T03:18:24;9.53;;;4.07;;
3141;SDS011;1581;51.568;6.998;2022-08-21T03:20:51;3.50;;;3.20;;
3141;SDS011;1581;51.568;6.998;2022-08-21T03:23:19;7.13;;;3.77;;
3141;SDS011;1581;51.568;6.998;2022-08-21T03:25:47;9.33;;;3.87;;
3141;SDS011;1581;51.568;6.998;2022-08-21T03:28:17;7.00;;;3.63;;
3141;SDS011;1581;51.568;6.998;2022-08-21T03:30:48;8.90;;;3.63;;
3141;SDS011;1581;51.568;6.998;2022-08-21T03:33:19;5.90;;;4.07;;
3141;SDS011;1581;51.568;6.998;2022-08-21T03:35:47;7.93;;;4.33;;
3141;SDS011;1581;51.568;6.998;2022-08-21T03:38:27;8.67;;;4.17;;
3141;SDS011;1581;51.568;6.998;2022-08-21T03:40:57;8.63;;;4.37;;
3141;SDS011;1581;51.568;6.998;2022-08-21T03:43:26;11.37;;;4.53;;
3141;SDS011;1581;51.568;6.998;2022-08-21T03:45:53;7.03;;;3.97;;
3141;SDS011;1581;51.568;6.998;2022-08-21T03:48:22;8.37;;;3.60;;
3141;SDS011;1581;51.568;6.998;2022-08-21T03:50:51;7.83;;;3.33;;
3141;SDS011;1581;51.568;6.998;2022-08-21T03:53:19;7.07;;;3.50;;
3141;SDS011;1581;51.568;6.998;2022-08-21T03:55:49;7.20;;;3.83;;
3141;SDS011;1581;51.568;6.998;2022-08-21T03:58:18;10.13;;;4.10;;
3141;SDS011;1581;51.568;6.998;2022-08-21T04:00:49;9.87;;;4.33;;
3141;SDS011;1581;51.568;6.998;2022-08-21T04:03:19;7.70;;;3.07;;
3141;SDS011;1581;51.568;6.998;2022-08-21T04:05:48;5.70;;;3.50;;
3141;SDS011;1581;51.568;6.998;2022-08-21T04:08:15;6.77;;;3.80;;
3141;SDS011;1581;51.568;6.998;2022-08-21T04:10:45;11.13;;;3.80;;
3141;SDS011;1581;51.568;6.998;2022-08-21T04:13:16;6.93;;;2.87;;
3141;SDS011;1581;51.568;6.998;2022-08-21T04:15:43;8.00;;;3.97;;
3141;SDS011;1581;51.568;6.998;2022-08-21T04:18:11;12.10;;;3.57;;
3141;SDS011;1581;51.568;6.998;2022-08-21T04:20:39;5.87;;;3.70;;
3141;SDS011;1581;51.568;6.998;2022-08-21T04:23:11;7.93;;;3.33;;
3141;SDS011;1581;51.568;6.998;2022-08-21T04:25:38;7.40;;;3.27;;
3141;SDS011;1581;51.568;6.998;2022-08-21T04:28:06;7.00;;;3.87;;
3141;SDS011;1581;51.568;6.998;2022-08-21T04:30:33;12.90;;;4.87;;
3141;SDS011;1581;51.568;6.998;2022-08-21T04:33:01;5.50;;;3.40;;
3141;SDS011;1581;51.568;6.998;2022-08-21T04:35:29;7.83;;;3.33;;
3141;SDS011;1581;51.568;6.998;2022-08-21T04:37:57;5.30;;;3.90;;
3141;SDS011;1581;51.568;6.998;2022-08-21T04:40:26;7.60;;;3.83;;
3141;SDS011;1581;51.568;6.998;2022-08-21T04:42:56;7.57;;;4.47;;
3141;SDS011;1581;51.568;6.998;2022-08-21T04:45:27;13.00;;;6.00;;
3141;SDS011;1581;51.568;6.998;2022-08-21T04:47:59;10.60;;;5.80;;
3141;SDS011;1581;51.568;6.998;2022-08-21T04:50:34;23.20;;;7.50;;
3141;SDS011;1581;51.568;6.998;2022-08-21T04:53:06;26.37;;;7.63;;
3141;SDS011;1581;51.568;6.998;2022-08-21T04:55:39;14.87;;;8.10;;
3141;SDS011;1581;51.568;6.998;2022-08-21T04:58:08;27.47;;;8.50;;
3141;SDS011;1581;51.568;6.998;2022-08-21T05:00:37;20.93;;;8.80;;
3141;SDS011;1581;51.568;6.998;2022-08-21T05:03:05;21.13;;;9.47;;
3141;SDS011;1581;51.568;6.998;2022-08-21T05:05:36;20.60;;;8.00;;
3141;SDS011;1581;51.568;6.998;2022-08-21T05:08:05;26.80;;;8.30;;
3141;SDS011;1581;51.568;6.998;2022-08-21T05:10:36;13.13;;;6.53;;
3141;SDS011;1581;51.568;6.998;2022-08-21T05:13:05;13.33;;;7.40;;
3141;SDS011;1581;51.568;6.998;2022-08-21T05:15:33;14.13;;;7.07;;
3141;SDS011;1581;51.568;6.998;2022-08-21T05:18:00;16.23;;;7.47;;
3141;SDS011;1581;51.568;6.998;2022-08-21T05:20:28;11.10;;;6.97;;
3141;SDS011;1581;51.568;6.998;2022-08-21T05:22:56;17.07;;;8.17;;
3141;SDS011;1581;51.568;6.998;2022-08-21T05:25:26;17.50;;;8.30;;
3141;SDS011;1581;51.568;6.998;2022-08-21T05:27:54;22.87;;;8.80;;
3141;SDS011;1581;51.568;6.998;2022-08-21T05:30:24;13.43;;;8.30;;
3141;SDS011;1581;51.568;6.998;2022-08-21T05:32:55;22.97;;;8.70;;
3141;SDS011;1581;51.568;6.998;2022-08-21T05:35:25;16.97;;;8.57;;
3141;SDS011;1581;51.568;6.998;2022-08-21T05:37:54;19.37;;;9.17;;
3141;SDS011;1581;51.568;6.998;2022-08-21T05:40:22;19.60;;;9.53;;
3141;SDS011;1581;51.568;6.998;2022-08-21T05:42:50;13.83;;;8.60;;
3141;SDS011;1581;51.568;6.998;2022-08-21T05:45:19;13.97;;;8.87;;
3141;SDS011;1581;51.568;6.998;2022-08-21T05:47:48;24.20;;;9.90;;
3141;SDS011;1581;51.568;6.998;2022-08-21T05:50:16;18.13;;;9.30;;
3141;SDS011;1581;51.568;6.998;2022-08-21T05:52:43;16.30;;;8.90;;
3141;SDS011;1581;51.568;6.998;2022-08-21T05:55:11;12.00;;;8.40;;
3141;SDS011;1581;51.568;6.998;2022-08-21T05:57:39;20.90;;;8.30;;
3141;SDS011;1581;51.568;6.998;2022-08-21T06:00:07;17.00;;;8.20;;
3141;SDS011;1581;51.568;6.998;2022-08-21T06:02:37;13.50;;;7.77;;
3141;SDS011;1581;51.568;6.998;2022-08-21T06:05:06;17.37;;;8.27;;
3141;SDS011;1581;51.568;6.998;2022-08-21T06:07:34;13.87;;;7.73;;
3141;SDS011;1581;51.568;6.998;2022-08-21T06:10:02;15.30;;;9.20;;
3141;SDS011;1581;51.568;6.998;2022-08-21T06:12:30;15.20;;;8.85;;
3141;SDS011;1581;51.568;6.998;2022-08-21T06:14:58;11.37;;;7.60;;
3141;SDS011;1581;51.568;6.998;2022-08-21T06:17:25;13.57;;;7.40;;
3141;SDS011;1581;51.568;6.998;2022-08-21T06:19:53;10.60;;;7.60;;
3141;SDS011;1581;51.568;6.998;2022-08-21T06:22:22;10.57;;;7.23;;
3141;SDS011;1581;51.568;6.998;2022-08-21T06:24:50;22.97;;;8.87;;
3141;SDS011;1581;51.568;6.998;2022-08-21T06:27:18;12.67;;;7.70;;
3141;SDS011;1581;51.568;6.998;2022-08-21T06:29:45;13.17;;;8.70;;
3141;SDS011;1581;51.568;6.998;2022-08-21T06:32:13;15.00;;;8.23;;
3141;SDS011;1581;51.568;6.998;2022-08-21T06:34:44;21.93;;;7.77;;
3141;SDS011;1581;51.568;6.998;2022-08-21T06:37:12;19.53;;;7.80;;
3141;SDS011;1581;51.568;6.998;2022-08-21T06:39:41;12.00;;;7.93;;
3141;SDS011;1581;51.568;6.998;2022-08-21T06:42:12;22.83;;;8.27;;
3141;SDS011;1581;51.568;6.998;2022-08-21T06:44:41;21.30;;;8.20;;
3141;SDS011;1581;51.568;6.998;2022-08-21T06:47:09;12.00;;;7.20;;
3141;SDS011;1581;51.568;6.998;2022-08-21T06:49:36;17.97;;;6.33;;
3141;SDS011;1581;51.568;6.998;2022-08-21T06:52:07;10.20;;;6.47;;
3141;SDS011;1581;51.568;6.998;2022-08-21T06:54:36;10.13;;;6.63;;
3141;SDS011;1581;51.568;6.998;2022-08-21T06:57:05;9.20;;;7.10;;
3141;SDS011;1581;51.568;6.998;2022-08-21T06:59:33;14.55;;;6.63;;
3141;SDS011;1581;51.568;6.998;2022-08-21T07:02:01;10.55;;;6.60;;
3141;SDS011;1581;51.568;6.998;2022-08-21T07:04:29;21.27;;;7.30;;
3141;SDS011;1581;51.568;6.998;2022-08-21T07:06:56;15.60;;;6.35;;
3141;SDS011;1581;51.568;6.998;2022-08-21T07:09:24;13.02;;;6.78;;
3141;SDS011;1581;51.568;6.998;2022-08-21T07:11:53;18.77;;;8.05;;
3141;SDS011;1581;51.568;6.998;2022-08-21T07:14:26;10.18;;;6.47;;
3141;SDS011;1581;51.568;6.998;2022-08-21T07:16:54;8.68;;;5.63;;
3141;SDS011;1581;51.568;6.998;2022-08-21T07:19:21;13.85;;;6.53;;
3141;SDS011;1581;51.568;6.998;2022-08-21T07:21:49;11.25;;;5.88;;
3141;SDS011;1581;51.568;6.998;2022-08-21T07:24:16;12.50;;;5.60;;
3141;SDS011;1581;51.568;6.998;2022-08-21T07:26:44;11.10;;;5.90;;
3141;SDS011;1581;51.568;6.998;2022-08-21T07:29:12;12.77;;;6.15;;
3141;SDS011;1581;51.568;6.998;2022-08-21T07:31:41;13.88;;;5.72;;
3141;SDS011;1581;51.568;6.998;2022-08-21T07:34:08;15.25;;;6.07;;
3141;SDS011;1581;51.568;6.998;2022-08-21T07:36:36;17.63;;;5.68;;
3141;SDS011;1581;51.568;6.998;2022-08-21T07:39:03;14.20;;;5.65;;
3141;SDS011;1581;51.568;6.998;2022-08-21T07:41:31;8.15;;;4.50;;
3141;SDS011;1581;51.568;6.998;2022-08-21T07:44:01;9.65;;;4.28;;
3141;SDS011;1581;51.568;6.998;2022-08-21T07:46:29;12.93;;;5.35;;
3141;SDS011;1581;51.568;6.998;2022-08-21T07:48:58;12.80;;;3.92;;
3141;SDS011;1581;51.568;6.998;2022-08-21T07:51:26;11.85;;;4.18;;
3141;SDS011;1581;51.568;6.998;2022-08-21T07:53:56;12.70;;;4.15;;
3141;SDS011;1581;51.568;6.998;2022-08-21T07:56:25;11.05;;;4.03;;
3141;SDS011;1581;51.568;6.998;2022-08-21T07:58:54;5.57;;;3.92;;
3141;SDS011;1581;51.568;6.998;2022-08-21T08:01:23;9.63;;;4.07;;
3141;SDS011;1581;51.568;6.998;2022-08-21T08:03:51;18.58;;;4.22;;
3141;SDS011;1581;51.568;6.998;2022-08-21T08:06:20;13.00;;;3.45;;
3141;SDS011;1581;51.568;6.998;2022-08-21T08:08:48;6.93;;;2.80;;
3141;SDS011;1581;51.568;6.998;2022-08-21T08:11:16;6.47;;;2.58;;
3141;SDS011;1581;51.568;6.998;2022-08-21T08:13:48;7.97;;;3.25;;
3141;SDS011;1581;51.568;6.998;2022-08-21T08:16:18;12.20;;;3.75;;
3141;SDS011;1581;51.568;6.998;2022-08-21T08:18:45;7.40;;;3.55;;
3141;SDS011;1581;51.568;6.998;2022-08-21T08:21:13;4.78;;;2.63;;
3141;SDS011;1581;51.568;6.998;2022-08-21T08:23:43;10.38;;;2.83;;
3141;SDS011;1581;51.568;6.998;2022-08-21T08:26:10;6.38;;;2.58;;
3141;SDS011;1581;51.568;6.998;2022-08-21T08:28:38;10.20;;;3.50;;
3141;SDS011;1581;51.568;6.998;2022-08-21T08:31:08;11.43;;;2.80;;
3141;SDS011;1581;51.568;6.998;2022-08-21T08:33:36;16.40;;;2.80;;
3141;SDS011;1581;51.568;6.998;2022-08-21T08:36:04;5.15;;;2.38;;
3141;SDS011;1581;51.568;6.998;2022-08-21T08:38:38;6.30;;;2.47;;
3141;SDS011;1581;51.568;6.998;2022-08-21T08:41:09;10.68;;;2.45;;
3141;SDS011;1581;51.568;6.998;2022-08-21T08:43:41;7.38;;;2.20;;
3141;SDS011;1581;51.568;6.998;2022-08-21T08:46:16;9.38;;;2.65;;
3141;SDS011;1581;51.568;6.998;2022-08-21T08:48:52;8.95;;;3.17;;
3141;SDS011;1581;51.568;6.998;2022-08-21T08:51:29;5.35;;;2.15;;
3141;SDS011;1581;51.568;6.998;2022-08-21T08:54:06;8.05;;;2.10;;
3141;SDS011;1581;51.568;6.998;2022-08-21T08:56:40;7.85;;;2.50;;
3141;SDS011;1581;51.568;6.998;2022-08-21T08:59:13;9.65;;;2.22;;
3141;SDS011;1581;51.568;6.998;2022-08-21T09:01:48;12.80;;;2.03;;
3141;SDS011;1581;51.568;6.998;2022-08-21T09:04:17;2.90;;;2.03;;
3141;SDS011;1581;51.568;6.998;2022-08-21T09:06:56;5.10;;;1.60;;
3141;SDS011;1581;51.568;6.998;2022-08-21T09:09:42;5.68;;;1.58;;
3141;SDS011;1581;51.568;6.998;2022-08-21T09:12:31;9.27;;;1.80;;
3141;SDS011;1581;51.568;6.998;2022-08-21T09:15:15;3.05;;;1.63;;
3141;SDS011;1581;51.568;6.998;2022-08-21T09:18:05;7.05;;;1.85;;
3141;SDS011;1581;51.568;6.998;2022-08-21T09:20:56;5.38;;;1.65;;
3141;SDS011;1581;51.568;6.998;2022-08-21T09:23:39;9.80;;;1.70;;
3141;SDS011;1581;51.568;6.998;2022-08-21T09:26:17;4.57;;;1.45;;
3141;SDS011;1581;51.568;6.998;2022-08-21T09:28:49;2.00;;;1.50;;
3141;SDS011;1581;51.568;6.998;2022-08-21T09:31:25;2.53;;;1.33;;
3141;SDS011;1581;51.568;6.998;2022-08-21T09:33:57;3.60;;;1.30;;
3141;SDS011;1581;51.568;6.998;2022-08-21T09:36:31;4.00;;;1.55;;
3141;SDS011;1581;51.568;6.998;2022-08-21T09:39:05;5.47;;;1.58;;
3141;SDS011;1581;51.568;6.998;2022-08-21T09:41:36;2.95;;;1.50;;
3141;SDS011;1581;51.568;6.998;2022-08-21T09:44:07;2.03;;;1.23;;
3141;SDS011;1581;51.568;6.998;2022-08-21T09:46:35;4.00;;;1.20;;
3141;SDS011;1581;51.568;6.998;2022-08-21T09:49:03;1.95;;;1.10;;
3141;SDS011;1581;51.568;6.998;2022-08-21T09:51:31;5.95;;;1.00;;
3141;SDS011;1581;51.568;6.998;2022-08-21T09:54:11;2.17;;;1.10;;
3141;SDS011;1581;51.568;6.998;2022-08-21T09:56:51;5.90;;;1.80;;
3141;SDS011;1581;51.568;6.998;2022-08-21T09:59:41;4.30;;;1.67;;
3141;SDS011;1581;51.568;6.998;2022-08-21T10:02:21;3.85;;;1.45;;
3141;SDS011;1581;51.568;6.998;2022-08-21T10:04:56;3.55;;;1.48;;
3141;SDS011;1581;51.568;6.998;2022-08-21T10:07:29;7.53;;;1.40;;
3141;SDS011;1581;51.568;6.998;2022-08-21T10:09:59;3.38;;;1.50;;
3141;SDS011;1581;51.568;6.998;2022-08-21T10:12:33;6.00;;;1.50;;
3141;SDS011;1581;51.568;6.998;2022-08-21T10:15:24;7.82;;;1.45;;
3141;SDS011;1581;51.568;6.998;2022-08-21T10:18:02;5.50;;;1.65;;
3141;SDS011;1581;51.568;6.998;2022-08-21T10:20:40;2.75;;;1.10;;
3141;SDS011;1581;51.568;6.998;2022-08-21T10:23:27;7.25;;;1.48;;
3141;SDS011;1581;51.568;6.998;2022-08-21T10:26:15;5.22;;;1.60;;
3141;SDS011;1581;51.568;6.998;2022-08-21T10:28:58;3.97;;;1.75;;
3141;SDS011;1581;51.568;6.998;2022-08-21T10:31:44;4.53;;;1.58;;
3141;SDS011;1581;51.568;6.998;2022-08-21T10:34:29;2.65;;;1.60;;
3141;SDS011;1581;51.568;6.998;2022-08-21T10:37:14;2.65;;;1.50;;
3141;SDS011;1581;51.568;6.998;2022-08-21T10:39:56;2.80;;;1.88;;
3141;SDS011;1581;51.568;6.998;2022-08-21T10:42:41;6.28;;;1.60;;
3141;SDS011;1581;51.568;6.998;2022-08-21T10:45:30;3.97;;;1.08;;
3141;SDS011;1581;51.568;6.998;2022-08-21T10:48:12;5.35;;;1.10;;
3141;SDS011;1581;51.568;6.998;2022-08-21T10:50:50;2.25;;;0.98;;
3141;SDS011;1581;51.568;6.998;2022-08-21T10:53:36;5.45;;;2.22;;
3141;SDS011;1581;51.568;6.998;2022-08-21T10:56:23;2.78;;;1.17;;
3141;SDS011;1581;51.568;6.998;2022-08-21T10:59:06;2.63;;;1.15;;
3141;SDS011;1581;51.568;6.998;2022-08-21T11:01:49;2.17;;;1.13;;
3141;SDS011;1581;51.568;6.998;2022-08-21T11:04:28;4.25;;;1.30;;
3141;SDS011;1581;51.568;6.998;2022-08-21T11:07:02;6.00;;;1.60;;
3141;SDS011;1581;51.568;6.998;2022-08-21T11:09:40;2.95;;;1.17;;
3141;SDS011;1581;51.568;6.998;2022-08-21T11:12:16;7.88;;;1.42;;
3141;SDS011;1581;51.568;6.998;2022-08-21T11:14:53;5.25;;;1.67;;
3141;SDS011;1581;51.568;6.998;2022-08-21T11:17:27;4.57;;;1.70;;
3141;SDS011;1581;51.568;6.998;2022-08-21T11:20:05;3.67;;;1.50;;
3141;SDS011;1581;51.568;6.998;2022-08-21T11:22:40;4.20;;;1.33;;
3141;SDS011;1581;51.568;6.998;2022-08-21T11:25:17;6.15;;;1.20;;
3141;SDS011;1581;51.568;6.998;2022-08-21T11:27:58;3.28;;;1.30;;
3141;SDS011;1581;51.568;6.998;2022-08-21T11:30:36;3.60;;;1.40;;
3141;SDS011;1581;51.568;6.998;2022-08-21T11:33:20;3.40;;;1.40;;
3141;SDS011;1581;51.568;6.998;2022-08-21T11:36:15;2.28;;;1.25;;
3141;SDS011;1581;51.568;6.998;2022-08-21T11:38:54;3.80;;;1.80;;
3141;SDS011;1581;51.568;6.998;2022-08-21T11:41:34;3.72;;;1.38;;
3141;SDS011;1581;51.568;6.998;2022-08-21T11:44:10;4.20;;;1.80;;
3141;SDS011;1581;51.568;6.998;2022-08-21T11:46:47;8.85;;;1.60;;
3141;SDS011;1581;51.568;6.998;2022-08-21T11:49:30;2.90;;;1.48;;
3141;SDS011;1581;51.568;6.998;2022-08-21T11:52:14;7.68;;;1.80;;
3141;SDS011;1581;51.568;6.998;2022-08-21T11:54:49;5.05;;;1.38;;
3141;SDS011;1581;51.568;6.998;2022-08-21T11:57:25;5.32;;;1.85;;
3141;SDS011;1581;51.568;6.998;2022-08-21T11:59:59;5.25;;;1.65;;
3141;SDS011;1581;51.568;6.998;2022-08-21T12:02:33;5.82;;;1.38;;
3141;SDS011;1581;51.568;6.998;2022-08-21T12:05:07;5.38;;;1.52;;
3141;SDS011;1581;51.568;6.998;2022-08-21T12:07:59;5.97;;;1.33;;
3141;SDS011;1581;51.568;6.998;2022-08-21T12:10:32;3.20;;;1.00;;
3141;SDS011;1581;51.568;6.998;2022-08-21T12:15:52;3.85;;;1.50;;
3141;SDS011;1581;51.568;6.998;2022-08-21T12:18:31;5.80;;;1.73;;
3141;SDS011;1581;51.568;6.998;2022-08-21T12:21:03;10.82;;;2.75;;
3141;SDS011;1581;51.568;6.998;2022-08-21T12:23:48;4.03;;;1.27;;
3141;SDS011;1581;51.568;6.998;2022-08-21T12:26:29;3.70;;;1.23;;
3141;SDS011;1581;51.568;6.998;2022-08-21T12:29:13;3.60;;;1.20;;
3141;SDS011;1581;51.568;6.998;2022-08-21T12:31:59;8.32;;;1.40;;
3141;SDS011;1581;51.568;6.998;2022-08-21T12:34:34;4.32;;;1.52;;
3141;SDS011;1581;51.568;6.998;2022-08-21T12:37:11;5.88;;;1.38;;
3141;SDS011;1581;51.568;6.998;2022-08-21T12:39:48;10.85;;;1.83;;
3141;SDS011;1581;51.568;6.998;2022-08-21T12:42:19;4.75;;;1.23;;
3141;SDS011;1581;51.568;6.998;2022-08-21T12:44:53;2.10;;;1.10;;
3141;SDS011;1581;51.568;6.998;2022-08-21T12:47:28;3.75;;;1.60;;
3141;SDS011;1581;51.568;6.998;2022-08-21T12:50:03;5.45;;;1.20;;
3141;SDS011;1581;51.568;6.998;2022-08-21T12:52:36;3.85;;;1.50;;
3141;SDS011;1581;51.568;6.998;2022-08-21T12:55:14;2.97;;;1.10;;
3141;SDS011;1581;51.568;6.998;2022-08-21T12:57:51;3.50;;;1.10;;
3141;SDS011;1581;51.568;6.998;2022-08-21T13:00:20;6.30;;;1.33;;
3141;SDS011;1581;51.568;6.998;2022-08-21T13:02:50;2.15;;;1.20;;
3141;SDS011;1581;51.568;6.998;2022-08-21T13:05:22;1.08;;;0.68;;
3141;SDS011;1581;51.568;6.998;2022-08-21T13:07:57;7.32;;;1.20;;
3141;SDS011;1581;51.568;6.998;2022-08-21T13:10:28;5.07;;;1.13;;
3141;SDS011;1581;51.568;6.998;2022-08-21T13:12:59;6.93;;;1.58;;
3141;SDS011;1581;51.568;6.998;2022-08-21T13:15:31;3.38;;;1.55;;
3141;SDS011;1581;51.568;6.998;2022-08-21T13:18:01;3.97;;;1.08;;
3141;SDS011;1581;51.568;6.998;2022-08-21T13:20:32;3.03;;;0.90;;
3141;SDS011;1581;51.568;6.998;2022-08-21T13:23:05;2.33;;;0.85;;
3141;SDS011;1581;51.568;6.998;2022-08-21T13:25:50;2.33;;;1.38;;
3141;SDS011;1581;51.568;6.998;2022-08-21T13:28:18;4.22;;;1.00;;
3141;SDS011;1581;51.568;6.998;2022-08-21T13:30:47;3.05;;;1.30;;
3141;SDS011;1581;51.568;6.998;2022-08-21T13:33:18;2.28;;;1.20;;
3141;SDS011;1581;51.568;6.998;2022-08-21T13:35:51;3.72;;;1.40;;
3141;SDS011;1581;51.568;6.998;2022-08-21T13:38:30;4.45;;;1.17;;
3141;SDS011;1581;51.568;6.998;2022-08-21T13:41:03;4.72;;;1.10;;
3141;SDS011;1581;51.568;6.998;2022-08-21T13:43:36;5.70;;;1.17;;
3141;SDS011;1581;51.568;6.998;2022-08-21T13:46:06;7.72;;;1.65;;
3141;SDS011;1581;51.568;6.998;2022-08-21T13:48:38;2.17;;;1.08;;
3141;SDS011;1581;51.568;6.998;2022-08-21T13:51:07;6.78;;;1.45;;
3141;SDS011;1581;51.568;6.998;2022-08-21T13:53:36;1.58;;;1.15;;
3141;SDS011;1581;51.568;6.998;2022-08-21T13:56:27;2.83;;;1.30;;
3141;SDS011;1581;51.568;6.998;2022-08-21T13:58:58;4.53;;;1.30;;
3141;SDS011;1581;51.568;6.998;2022-08-21T14:01:28;6.80;;;1.30;;
3141;SDS011;1581;51.568;6.998;2022-08-21T14:04:01;1.45;;;1.10;;
3141;SDS011;1581;51.568;6.998;2022-08-21T14:06:33;10.80;;;1.45;;
3141;SDS011;1581;51.568;6.998;2022-08-21T14:09:07;1.13;;;1.02;;
3141;SDS011;1581;51.568;6.998;2022-08-21T14:11:40;4.18;;;1.27;;
3141;SDS011;1581;51.568;6.998;2022-08-21T14:14:13;4.40;;;1.25;;
3141;SDS011;1581;51.568;6.998;2022-08-21T14:16:53;3.03;;;0.98;;
3141;SDS011;1581;51.568;6.998;2022-08-21T14:19:23;1.83;;;1.10;;
3141;SDS011;1581;51.568;6.998;2022-08-21T14:21:53;2.75;;;1.40;;
3141;SDS011;1581;51.568;6.998;2022-08-21T14:24:28;1.38;;;1.08;;
3141;SDS011;1581;51.568;6.998;2022-08-21T14:27:02;2.03;;;1.17;;
3141;SDS011;1581;51.568;6.998;2022-08-21T14:29:36;1.33;;;1.08;;
3141;SDS011;1581;51.568;6.998;2022-08-21T14:32:11;6.45;;;1.80;;
3141;SDS011;1581;51.568;6.998;2022-08-21T14:34:42;4.88;;;1.50;;
3141;SDS011;1581;51.568;6.998;2022-08-21T14:37:10;11.93;;;2.30;;
3141;SDS011;1581;51.568;6.998;2022-08-21T14:39:38;9.05;;;2.03;;
3141;SDS011;1581;51.568;6.998;2022-08-21T14:42:07;5.90;;;1.40;;
3141;SDS011;1581;51.568;6.998;2022-08-21T14:44:34;3.13;;;1.15;;
3141;SDS011;1581;51.568;6.998;2022-08-21T14:47:05;1.35;;;0.98;;
3141;SDS011;1581;51.568;6.998;2022-08-21T14:49:34;3.60;;;1.27;;
3141;SDS011;1581;51.568;6.998;2022-08-21T14:52:02;2.80;;;1.30;;
3141;SDS011;1581;51.568;6.998;2022-08-21T14:54:31;2.95;;;1.42;;
3141;SDS011;1581;51.568;6.998;2022-08-21T14:57:00;6.25;;;1.17;;
3141;SDS011;1581;51.568;6.998;2022-08-21T14:59:34;3.13;;;1.23;;
3141;SDS011;1581;51.568;6.998;2022-08-21T15:02:04;5.50;;;1.20;;
3141;SDS011;1581;51.568;6.998;2022-08-21T15:04:35;3.17;;;1.23;;
3141;SDS011;1581;51.568;6.998;2022-08-21T15:07:03;1.42;;;0.90;;
3141;SDS011;1581;51.568;6.998;2022-08-21T15:09:30;2.00;;;0.95;;
3141;SDS011;1581;51.568;6.998;2022-08-21T15:11:58;5.78;;;1.38;;
3141;SDS011;1581;51.568;6.998;2022-08-21T15:14:29;2.20;;;1.17;;
3141;SDS011;1581;51.568;6.998;2022-08-21T15:17:02;4.78;;;1.30;;
3141;SDS011;1581;51.568;6.998;2022-08-21T15:19:33;4.35;;;1.20;;
3141;SDS011;1581;51.568;6.998;2022-08-21T15:22:01;4.10;;;1.10;;
3141;SDS011;1581;51.568;6.998;2022-08-21T15:24:28;6.25;;;1.58;;
3141;SDS011;1581;51.568;6.998;2022-08-21T15:26:58;3.40;;;1.27;;
3141;SDS011;1581;51.568;6.998;2022-08-21T15:29:28;4.95;;;1.23;;
3141;SDS011;1581;51.568;6.998;2022-08-21T15:31:58;2.58;;;1.38;;
3141;SDS011;1581;51.568;6.998;2022-08-21T15:34:29;2.05;;;1.17;;
3141;SDS011;1581;51.568;6.998;2022-08-21T15:36:57;5.97;;;1.35;;
3141;SDS011;1581;51.568;6.998;2022-08-21T15:39:25;4.93;;;1.20;;
3141;SDS011;1581;51.568;6.998;2022-08-21T15:41:54;2.75;;;1.23;;